Stena Suede — ZCEF5 — position and weather

sailwx.info

Track history (hours):
 
Tides and Currents Weather Stations Pressure Air Temp Water Temp Dewpoint Dewpoint Depression Visibility Wind Speed Wind Dir Waves Ship Positions

Stena Suede

Last reported at 2017-Jul-01 05:06 UTC. Time now 2017-Aug-21 19:47 UTC.
Position N 25°37' W 079°30'.
Warning: this ship's position is 51 days out of date.

Length 274 m; draft 9 m.

Type: Tanker. MMSI: 310622000.

Date/timePositionNaut miles runAvg speedWind from/ knotsBaromVisibWave heightAir tempDewpointWater temp
2017-Jul-01 05:06N 25°37' W 079°30'112.1
2017-Jul-01 05:00N 25°38' W 079°29'1211.9
2017-Jul-01 04:01N 25°50' W 079°28'1812.0
2017-Jul-01 02:33N 26°07' W 079°26'112.2
2017-Jul-01 02:30N 26°08' W 079°26'612.1
2017-Jul-01 02:00N 26°14' W 079°26'  
2017-Jun-27 08:44N 38°34' W 074°16'0 0.2
2017-Jun-27 08:30N 38°34' W 074°16'0 0.3
2017-Jun-27 07:32N 38°35' W 074°16'0 0.3
2017-Jun-27 07:30N 38°35' W 074°16'0 0.6
2017-Jun-27 06:52N 38°35' W 074°16'0 0.8
2017-Jun-27 06:30N 38°35' W 074°16'0 0.9
2017-Jun-27 06:01N 38°36' W 074°17'0 0.8
2017-Jun-27 05:31N 38°36' W 074°17'0 0.9
2017-Jun-27 05:00N 38°36' W 074°17'0 0.8
2017-Jun-27 04:30N 38°37' W 074°18'0 0.8
2017-Jun-27 04:01N 38°37' W 074°18'0 0.8
2017-Jun-27 03:31N 38°37' W 074°18'0 0.7
2017-Jun-27 03:00N 38°38' W 074°19'0 0.9
2017-Jun-27 02:31N 38°38' W 074°19'2 3.2
2017-Jun-27 02:00N 38°37' W 074°21'5 9.7
2017-Jun-27 01:30N 38°34' W 074°26'1 1.4
2017-Jun-27 01:00N 38°33' W 074°26'0 0.4
2017-Jun-27 00:27N 38°33' W 074°26'0 0.5
2017-Jun-27 00:00N 38°33' W 074°25'0 0.5
2017-Jun-26 23:30N 38°33' W 074°25'0 0.6
2017-Jun-26 22:59N 38°32' W 074°25'1 0.4
2017-Jun-26 19:53N 38°32' W 074°23'12 0.6
2017-Jun-26 01:04N 38°43' W 074°24'0 1.1
2017-Jun-26 00:59N 38°43' W 074°24'1 1.0
2017-Jun-26 00:22N 38°43' W 074°24'0 1.0
2017-Jun-26 00:00N 38°42' W 074°24'0 1.0
2017-Jun-25 23:30N 38°42' W 074°24'1 1.0
2017-Jun-25 23:00N 38°41' W 074°24'1 1.0
2017-Jun-25 22:30N 38°41' W 074°24'1 1.0
2017-Jun-25 21:57N 38°40' W 074°24'0 1.0
2017-Jun-25 21:30N 38°40' W 074°24'1 1.0
2017-Jun-25 20:57N 38°39' W 074°23'0 1.0
2017-Jun-25 20:30N 38°39' W 074°23'0 0.9
2017-Jun-25 20:00N 38°38' W 074°23'0 0.8
2017-Jun-25 19:29N 38°38' W 074°22'0 0.7
2017-Jun-25 19:00N 38°38' W 074°22'0 0.6
2017-Jun-25 18:23N 38°38' W 074°22'0 0.4
2017-Jun-25 17:58N 38°38' W 074°21'0 0.3
2017-Jun-25 17:29N 38°38' W 074°21'1 0.4
2017-Jun-25 13:36N 38°39' W 074°22'0 0.4
2017-Jun-25 13:30N 38°39' W 074°22'0 0.4
2017-Jun-25 13:00N 38°39' W 074°22'0 0.4
2017-Jun-25 12:30N 38°39' W 074°22'0 0.5
2017-Jun-25 12:01N 38°39' W 074°23'0 0.5
2017-Jun-25 11:26N 38°39' W 074°23'0 0.7
2017-Jun-25 10:58N 38°39' W 074°23'0 0.6
2017-Jun-25 10:24N 38°38' W 074°23'18 2.2
2017-Jun-25 02:21N 38°45' W 074°44'18 7.9
2017-Jun-25 00:04N 38°52' W 075°05'1 9.8
2017-Jun-24 23:57N 38°53' W 075°05'510.6
2017-Jun-24 23:30N 38°57' W 075°07'511.0
2017-Jun-24 23:00N 39°02' W 075°10'611.6
2017-Jun-24 22:31N 39°07' W 075°13'612.6
2017-Jun-24 22:00N 39°13' W 075°17'714.7
2017-Jun-24 21:30N 39°18' W 075°23'815.8
2017-Jun-24 21:01N 39°24' W 075°30'713.6
2017-Jun-24 20:31N 39°31' W 075°33'714.1
2017-Jun-24 20:01N 39°38' W 075°35'612.9
2017-Jun-24 19:30N 39°43' W 075°30'612.0
2017-Jun-24 19:00N 39°48' W 075°26'1 2.3
2017-Jun-24 18:28N 39°49' W 075°24'0 0.1
2017-Jun-24 17:55N 39°49' W 075°24'0 0.0
2017-Jun-24 17:28N 39°49' W 075°24'0 0.0
2017-Jun-24 16:58N 39°49' W 075°24'0 0.0
2017-Jun-24 16:28N 39°49' W 075°24'0 0.0
2017-Jun-24 15:58N 39°49' W 075°24'0 0.0
2017-Jun-24 15:28N 39°49' W 075°24'0 0.0
2017-Jun-24 14:58N 39°49' W 075°24'0 0.0
2017-Jun-24 13:58N 39°49' W 075°24'0 0.0
2017-Jun-24 13:28N 39°49' W 075°24'0 0.0
2017-Jun-24 12:58N 39°49' W 075°24'0 0.0
2017-Jun-24 12:28N 39°49' W 075°24'0 0.0
2017-Jun-24 11:58N 39°49' W 075°24'0 0.0
2017-Jun-24 11:28N 39°49' W 075°24'0 0.0
2017-Jun-24 10:58N 39°49' W 075°24'0 0.0
2017-Jun-24 10:28N 39°49' W 075°24'0 0.0
2017-Jun-24 09:58N 39°49' W 075°24'0 0.0
2017-Jun-24 09:28N 39°49' W 075°24'0 0.0
2017-Jun-24 08:58N 39°49' W 075°24'0 0.0
2017-Jun-24 08:22N 39°49' W 075°24'0 0.0
2017-Jun-24 07:58N 39°49' W 075°24'0 0.0
2017-Jun-24 07:28N 39°49' W 075°24'0 0.0
2017-Jun-24 06:58N 39°49' W 075°24'0 0.0
2017-Jun-24 06:28N 39°49' W 075°24'0 0.0
2017-Jun-24 05:58N 39°49' W 075°24'0 0.0
2017-Jun-24 05:28N 39°49' W 075°24'0 0.0
2017-Jun-24 04:58N 39°49' W 075°24'0 0.0
2017-Jun-24 04:28N 39°49' W 075°24'0 0.0
2017-Jun-24 03:58N 39°49' W 075°24'0 0.0
2017-Jun-24 03:28N 39°49' W 075°24'0 0.0
2017-Jun-24 02:58N 39°49' W 075°24'0 0.0
2017-Jun-24 02:28N 39°49' W 075°24'0 0.0
2017-Jun-24 01:58N 39°49' W 075°24'0 0.0
2017-Jun-24 01:28N 39°49' W 075°24'0 0.0
2017-Jun-24 00:58N 39°49' W 075°24'0 0.0
2017-Jun-24 00:28N 39°49' W 075°24'0 0.0
2017-Jun-23 23:58N 39°49' W 075°24'0 0.0
2017-Jun-23 23:28N 39°49' W 075°24'0 0.0
2017-Jun-23 22:58N 39°49' W 075°24'0 0.0
2017-Jun-23 22:28N 39°49' W 075°24'0 0.0
2017-Jun-23 21:58N 39°49' W 075°24'0 0.0
2017-Jun-23 21:28N 39°49' W 075°24'0 0.0
2017-Jun-23 20:58N 39°49' W 075°24'0 0.0
2017-Jun-23 20:28N 39°49' W 075°24'0 0.0
2017-Jun-23 19:58N 39°49' W 075°24'0 0.0
2017-Jun-23 19:28N 39°49' W 075°24'0 0.0
2017-Jun-23 18:58N 39°49' W 075°24'0 0.0
2017-Jun-23 18:28N 39°49' W 075°24'0 0.0
2017-Jun-23 17:58N 39°49' W 075°24'0 0.0
2017-Jun-23 17:28N 39°49' W 075°24'0 0.0
2017-Jun-23 16:58N 39°49' W 075°24'0 0.0
2017-Jun-23 16:28N 39°49' W 075°24'0 0.0
2017-Jun-23 15:58N 39°49' W 075°24'0 0.0
2017-Jun-23 15:28N 39°49' W 075°24'0 0.0
2017-Jun-23 14:58N 39°49' W 075°24'0 0.0
2017-Jun-23 13:58N 39°49' W 075°24'0 0.0
2017-Jun-23 13:28N 39°49' W 075°24'0 0.0
2017-Jun-23 12:58N 39°49' W 075°24'0 0.0
2017-Jun-23 12:28N 39°49' W 075°24'0 0.0
2017-Jun-23 11:58N 39°49' W 075°24'0 0.0
2017-Jun-23 11:28N 39°49' W 075°24'0 0.0
2017-Jun-23 10:58N 39°49' W 075°24'0 0.0
2017-Jun-23 10:28N 39°49' W 075°24'0 0.0
2017-Jun-23 09:58N 39°49' W 075°24'0 0.0
2017-Jun-23 09:28N 39°49' W 075°24'0 0.0
2017-Jun-23 08:58N 39°49' W 075°24'0 0.0
2017-Jun-23 08:28N 39°49' W 075°24'0 0.0
2017-Jun-23 07:58N 39°49' W 075°24'0 0.0
2017-Jun-23 07:28N 39°49' W 075°24'0 0.0
2017-Jun-23 06:58N 39°49' W 075°24'0 0.0
2017-Jun-23 06:29N 39°49' W 075°24'0 0.0
2017-Jun-23 06:00N 39°49' W 075°24'0 0.0
2017-Jun-23 05:30N 39°49' W 075°24'0 0.0
2017-Jun-23 05:00N 39°49' W 075°24'0 0.0
2017-Jun-23 04:30N 39°49' W 075°24'0 0.0
2017-Jun-23 04:00N 39°49' W 075°24'0 0.7
2017-Jun-23 03:30N 39°49' W 075°24'1 2.3
2017-Jun-23 03:00N 39°48' W 075°25'4 7.8
2017-Jun-23 02:30N 39°45' W 075°29'4 8.8
2017-Jun-23 02:00N 39°41' W 075°31'611.1
2017-Jun-23 01:30N 39°36' W 075°34'510.5
2017-Jun-23 01:01N 39°31' W 075°33'611.1
2017-Jun-23 00:31N 39°26' W 075°32'713.1
2017-Jun-23 00:00N 39°21' W 075°26'714.2
2017-Jun-22 23:31N 39°16' W 075°20'714.1
2017-Jun-22 23:01N 39°10' W 075°15'713.5
2017-Jun-22 22:31N 39°04' W 075°11'815.8
2017-Jun-22 22:00N 38°57' W 075°07'815.2
2017-Jun-22 21:30N 38°50' W 075°03'1810.2
2017-Jun-22 19:42N 38°36' W 074°47'311.1
2017-Jun-22 19:27N 38°35' W 074°44'1010.9
2017-Jun-22 18:33N 38°41' W 074°33'1 1.6
2017-Jun-22 18:14N 38°41' W 074°33'0 0.2
2017-Jun-22 17:59N 38°41' W 074°33'0 0.1
2017-Jun-22 17:29N 38°41' W 074°33'0 0.0
2017-Jun-22 16:59N 38°41' W 074°33'0 0.0
2017-Jun-22 16:29N 38°41' W 074°33'0 0.0
2017-Jun-22 15:59N 38°41' W 074°33'0 0.0
2017-Jun-22 14:50N 38°41' W 074°33'0 0.0
2017-Jun-22 14:29N 38°41' W 074°33'0 0.0
2017-Jun-22 13:26N 38°41' W 074°33'0 0.1
2017-Jun-22 12:56N 38°41' W 074°33'0 0.0
2017-Jun-22 12:29N 38°41' W 074°33'0 0.1
2017-Jun-22 11:59N 38°41' W 074°33'0 0.1
2017-Jun-22 11:29N 38°41' W 074°33'0 0.1
2017-Jun-22 10:59N 38°41' W 074°33'0 0.1
2017-Jun-22 10:23N 38°41' W 074°33'0 0.0
2017-Jun-22 09:56N 38°41' W 074°33'0 0.0
2017-Jun-22 09:29N 38°41' W 074°33'0 0.0
2017-Jun-22 08:56N 38°41' W 074°33'0 0.0
2017-Jun-22 08:29N 38°41' W 074°33'0 0.0
2017-Jun-22 07:50N 38°41' W 074°33'0 0.0
2017-Jun-22 07:29N 38°41' W 074°33'0 0.1
2017-Jun-22 06:44N 38°41' W 074°33'0 0.4
2017-Jun-22 06:26N 38°41' W 074°33'0 0.3
2017-Jun-22 06:00N 38°41' W 074°32'0 0.4
2017-Jun-22 05:30N 38°41' W 074°32'0 0.6
2017-Jun-22 05:00N 38°41' W 074°32'0 0.3
2017-Jun-22 04:30N 38°42' W 074°32'0 0.3
2017-Jun-22 03:58N 38°42' W 074°32'0 0.4
2017-Jun-22 03:30N 38°42' W 074°32'0 0.8
2017-Jun-22 03:00N 38°42' W 074°32'0 0.9
2017-Jun-22 02:30N 38°42' W 074°32'1 1.5
2017-Jun-22 02:00N 38°42' W 074°33'1 1.7
2017-Jun-22 01:30N 38°41' W 074°33'6 0.4
2017-Jun-21 07:30N 38°35' W 074°34'  
Track history (hours):
 
Tides and Currents Weather Stations Pressure Air Temp Water Temp Dewpoint Dewpoint Depression Visibility Wind Speed Wind Dir Waves Ship Positions

Stena Suede

Last reported at 2017-Jul-01 05:06 UTC. Time now 2017-Aug-21 19:47 UTC.
Position N 25°37' W 079°30'.
Warning: this ship's position is 51 days out of date.

Length 274 m; draft 9 m.

Type: Tanker. MMSI: 310622000.

Date/timePositionNaut miles runAvg speedWind from/ knotsBaromVisibWave heightAir tempDewpointWater temp
2017-Jul-01 05:06N 25°37' W 079°30'112.1
2017-Jul-01 05:00N 25°38' W 079°29'1211.9
2017-Jul-01 04:01N 25°50' W 079°28'1812.0
2017-Jul-01 02:33N 26°07' W 079°26'112.2
2017-Jul-01 02:30N 26°08' W 079°26'612.1
2017-Jul-01 02:00N 26°14' W 079°26'  
2017-Jun-27 08:44N 38°34' W 074°16'0 0.2
2017-Jun-27 08:30N 38°34' W 074°16'0 0.3
2017-Jun-27 07:32N 38°35' W 074°16'0 0.3
2017-Jun-27 07:30N 38°35' W 074°16'0 0.6
2017-Jun-27 06:52N 38°35' W 074°16'0 0.8
2017-Jun-27 06:30N 38°35' W 074°16'0 0.9
2017-Jun-27 06:01N 38°36' W 074°17'0 0.8
2017-Jun-27 05:31N 38°36' W 074°17'0 0.9
2017-Jun-27 05:00N 38°36' W 074°17'0 0.8
2017-Jun-27 04:30N 38°37' W 074°18'0 0.8
2017-Jun-27 04:01N 38°37' W 074°18'0 0.8
2017-Jun-27 03:31N 38°37' W 074°18'0 0.7
2017-Jun-27 03:00N 38°38' W 074°19'0 0.9
2017-Jun-27 02:31N 38°38' W 074°19'2 3.2
2017-Jun-27 02:00N 38°37' W 074°21'5 9.7
2017-Jun-27 01:30N 38°34' W 074°26'1 1.4
2017-Jun-27 01:00N 38°33' W 074°26'0 0.4
2017-Jun-27 00:27N 38°33' W 074°26'0 0.5
2017-Jun-27 00:00N 38°33' W 074°25'0 0.5
2017-Jun-26 23:30N 38°33' W 074°25'0 0.6
2017-Jun-26 22:59N 38°32' W 074°25'1 0.4
2017-Jun-26 19:53N 38°32' W 074°23'12 0.6
2017-Jun-26 01:04N 38°43' W 074°24'0 1.1
2017-Jun-26 00:59N 38°43' W 074°24'1 1.0
2017-Jun-26 00:22N 38°43' W 074°24'0 1.0
2017-Jun-26 00:00N 38°42' W 074°24'0 1.0
2017-Jun-25 23:30N 38°42' W 074°24'1 1.0
2017-Jun-25 23:00N 38°41' W 074°24'1 1.0
2017-Jun-25 22:30N 38°41' W 074°24'1 1.0
2017-Jun-25 21:57N 38°40' W 074°24'0 1.0
2017-Jun-25 21:30N 38°40' W 074°24'1 1.0
2017-Jun-25 20:57N 38°39' W 074°23'0 1.0
2017-Jun-25 20:30N 38°39' W 074°23'0 0.9
2017-Jun-25 20:00N 38°38' W 074°23'0 0.8
2017-Jun-25 19:29N 38°38' W 074°22'0 0.7
2017-Jun-25 19:00N 38°38' W 074°22'0 0.6
2017-Jun-25 18:23N 38°38' W 074°22'0 0.4
2017-Jun-25 17:58N 38°38' W 074°21'0 0.3
2017-Jun-25 17:29N 38°38' W 074°21'1 0.4
2017-Jun-25 13:36N 38°39' W 074°22'0 0.4
2017-Jun-25 13:30N 38°39' W 074°22'0 0.4
2017-Jun-25 13:00N 38°39' W 074°22'0 0.4
2017-Jun-25 12:30N 38°39' W 074°22'0 0.5
2017-Jun-25 12:01N 38°39' W 074°23'0 0.5
2017-Jun-25 11:26N 38°39' W 074°23'0 0.7
2017-Jun-25 10:58N 38°39' W 074°23'0 0.6
2017-Jun-25 10:24N 38°38' W 074°23'18 2.2
2017-Jun-25 02:21N 38°45' W 074°44'18 7.9
2017-Jun-25 00:04N 38°52' W 075°05'1 9.8
2017-Jun-24 23:57N 38°53' W 075°05'510.6
2017-Jun-24 23:30N 38°57' W 075°07'511.0
2017-Jun-24 23:00N 39°02' W 075°10'611.6
2017-Jun-24 22:31N 39°07' W 075°13'612.6
2017-Jun-24 22:00N 39°13' W 075°17'714.7
2017-Jun-24 21:30N 39°18' W 075°23'815.8
2017-Jun-24 21:01N 39°24' W 075°30'713.6
2017-Jun-24 20:31N 39°31' W 075°33'714.1
2017-Jun-24 20:01N 39°38' W 075°35'612.9
2017-Jun-24 19:30N 39°43' W 075°30'612.0
2017-Jun-24 19:00N 39°48' W 075°26'1 2.3
2017-Jun-24 18:28N 39°49' W 075°24'0 0.1
2017-Jun-24 17:55N 39°49' W 075°24'0 0.0
2017-Jun-24 17:28N 39°49' W 075°24'0 0.0
2017-Jun-24 16:58N 39°49' W 075°24'0 0.0
2017-Jun-24 16:28N 39°49' W 075°24'0 0.0
2017-Jun-24 15:58N 39°49' W 075°24'0 0.0
2017-Jun-24 15:28N 39°49' W 075°24'0 0.0
2017-Jun-24 14:58N 39°49' W 075°24'0 0.0
2017-Jun-24 13:58N 39°49' W 075°24'0 0.0
2017-Jun-24 13:28N 39°49' W 075°24'0 0.0
2017-Jun-24 12:58N 39°49' W 075°24'0 0.0
2017-Jun-24 12:28N 39°49' W 075°24'0 0.0
2017-Jun-24 11:58N 39°49' W 075°24'0 0.0
2017-Jun-24 11:28N 39°49' W 075°24'0 0.0
2017-Jun-24 10:58N 39°49' W 075°24'0 0.0
2017-Jun-24 10:28N 39°49' W 075°24'0 0.0
2017-Jun-24 09:58N 39°49' W 075°24'0 0.0
2017-Jun-24 09:28N 39°49' W 075°24'0 0.0
2017-Jun-24 08:58N 39°49' W 075°24'0 0.0
2017-Jun-24 08:22N 39°49' W 075°24'0 0.0
2017-Jun-24 07:58N 39°49' W 075°24'0 0.0
2017-Jun-24 07:28N 39°49' W 075°24'0 0.0
2017-Jun-24 06:58N 39°49' W 075°24'0 0.0
2017-Jun-24 06:28N 39°49' W 075°24'0 0.0
2017-Jun-24 05:58N 39°49' W 075°24'0 0.0
2017-Jun-24 05:28N 39°49' W 075°24'0 0.0
2017-Jun-24 04:58N 39°49' W 075°24'0 0.0
2017-Jun-24 04:28N 39°49' W 075°24'0 0.0
2017-Jun-24 03:58N 39°49' W 075°24'0 0.0
2017-Jun-24 03:28N 39°49' W 075°24'0 0.0
2017-Jun-24 02:58N 39°49' W 075°24'0 0.0
2017-Jun-24 02:28N 39°49' W 075°24'0 0.0
2017-Jun-24 01:58N 39°49' W 075°24'0 0.0
2017-Jun-24 01:28N 39°49' W 075°24'0 0.0
2017-Jun-24 00:58N 39°49' W 075°24'0 0.0
2017-Jun-24 00:28N 39°49' W 075°24'0 0.0
2017-Jun-23 23:58N 39°49' W 075°24'0 0.0
2017-Jun-23 23:28N 39°49' W 075°24'0 0.0
2017-Jun-23 22:58N 39°49' W 075°24'0 0.0
2017-Jun-23 22:28N 39°49' W 075°24'0 0.0
2017-Jun-23 21:58N 39°49' W 075°24'0 0.0
2017-Jun-23 21:28N 39°49' W 075°24'0 0.0
2017-Jun-23 20:58N 39°49' W 075°24'0 0.0
2017-Jun-23 20:28N 39°49' W 075°24'0 0.0
2017-Jun-23 19:58N 39°49' W 075°24'0 0.0
2017-Jun-23 19:28N 39°49' W 075°24'0 0.0
2017-Jun-23 18:58N 39°49' W 075°24'0 0.0
2017-Jun-23 18:28N 39°49' W 075°24'0 0.0
2017-Jun-23 17:58N 39°49' W 075°24'0 0.0
2017-Jun-23 17:28N 39°49' W 075°24'0 0.0
2017-Jun-23 16:58N 39°49' W 075°24'0 0.0
2017-Jun-23 16:28N 39°49' W 075°24'0 0.0
2017-Jun-23 15:58N 39°49' W 075°24'0 0.0
2017-Jun-23 15:28N 39°49' W 075°24'0 0.0
2017-Jun-23 14:58N 39°49' W 075°24'0 0.0
2017-Jun-23 13:58N 39°49' W 075°24'0 0.0
2017-Jun-23 13:28N 39°49' W 075°24'0 0.0
2017-Jun-23 12:58N 39°49' W 075°24'0 0.0
2017-Jun-23 12:28N 39°49' W 075°24'0 0.0
2017-Jun-23 11:58N 39°49' W 075°24'0 0.0
2017-Jun-23 11:28N 39°49' W 075°24'0 0.0
2017-Jun-23 10:58N 39°49' W 075°24'0 0.0
2017-Jun-23 10:28N 39°49' W 075°24'0 0.0
2017-Jun-23 09:58N 39°49' W 075°24'0 0.0
2017-Jun-23 09:28N 39°49' W 075°24'0 0.0
2017-Jun-23 08:58N 39°49' W 075°24'0 0.0
2017-Jun-23 08:28N 39°49' W 075°24'0 0.0
2017-Jun-23 07:58N 39°49' W 075°24'0 0.0
2017-Jun-23 07:28N 39°49' W 075°24'0 0.0
2017-Jun-23 06:58N 39°49' W 075°24'0 0.0
2017-Jun-23 06:29N 39°49' W 075°24'0 0.0
2017-Jun-23 06:00N 39°49' W 075°24'0 0.0
2017-Jun-23 05:30N 39°49' W 075°24'0 0.0
2017-Jun-23 05:00N 39°49' W 075°24'0 0.0
2017-Jun-23 04:30N 39°49' W 075°24'0 0.0
2017-Jun-23 04:00N 39°49' W 075°24'0 0.7
2017-Jun-23 03:30N 39°49' W 075°24'1 2.3
2017-Jun-23 03:00N 39°48' W 075°25'4 7.8
2017-Jun-23 02:30N 39°45' W 075°29'4 8.8
2017-Jun-23 02:00N 39°41' W 075°31'611.1
2017-Jun-23 01:30N 39°36' W 075°34'510.5
2017-Jun-23 01:01N 39°31' W 075°33'611.1
2017-Jun-23 00:31N 39°26' W 075°32'713.1
2017-Jun-23 00:00N 39°21' W 075°26'714.2
2017-Jun-22 23:31N 39°16' W 075°20'714.1
2017-Jun-22 23:01N 39°10' W 075°15'713.5
2017-Jun-22 22:31N 39°04' W 075°11'815.8
2017-Jun-22 22:00N 38°57' W 075°07'815.2
2017-Jun-22 21:30N 38°50' W 075°03'1810.2
2017-Jun-22 19:42N 38°36' W 074°47'311.1
2017-Jun-22 19:27N 38°35' W 074°44'1010.9
2017-Jun-22 18:33N 38°41' W 074°33'1 1.6
2017-Jun-22 18:14N 38°41' W 074°33'0 0.2
2017-Jun-22 17:59N 38°41' W 074°33'0 0.1
2017-Jun-22 17:29N 38°41' W 074°33'0 0.0
2017-Jun-22 16:59N 38°41' W 074°33'0 0.0
2017-Jun-22 16:29N 38°41' W 074°33'0 0.0
2017-Jun-22 15:59N 38°41' W 074°33'0 0.0
2017-Jun-22 14:50N 38°41' W 074°33'0 0.0
2017-Jun-22 14:29N 38°41' W 074°33'0 0.0
2017-Jun-22 13:26N 38°41' W 074°33'0 0.1
2017-Jun-22 12:56N 38°41' W 074°33'0 0.0
2017-Jun-22 12:29N 38°41' W 074°33'0 0.1
2017-Jun-22 11:59N 38°41' W 074°33'0 0.1
2017-Jun-22 11:29N 38°41' W 074°33'0 0.1
2017-Jun-22 10:59N 38°41' W 074°33'0 0.1
2017-Jun-22 10:23N 38°41' W 074°33'0 0.0
2017-Jun-22 09:56N 38°41' W 074°33'0 0.0
2017-Jun-22 09:29N 38°41' W 074°33'0 0.0
2017-Jun-22 08:56N 38°41' W 074°33'0 0.0
2017-Jun-22 08:29N 38°41' W 074°33'0 0.0
2017-Jun-22 07:50N 38°41' W 074°33'0 0.0
2017-Jun-22 07:29N 38°41' W 074°33'0 0.1
2017-Jun-22 06:44N 38°41' W 074°33'0 0.4
2017-Jun-22 06:26N 38°41' W 074°33'0 0.3
2017-Jun-22 06:00N 38°41' W 074°32'0 0.4
2017-Jun-22 05:30N 38°41' W 074°32'0 0.6
2017-Jun-22 05:00N 38°41' W 074°32'0 0.3
2017-Jun-22 04:30N 38°42' W 074°32'0 0.3
2017-Jun-22 03:58N 38°42' W 074°32'0 0.4
2017-Jun-22 03:30N 38°42' W 074°32'0 0.8
2017-Jun-22 03:00N 38°42' W 074°32'0 0.9
2017-Jun-22 02:30N 38°42' W 074°32'1 1.5
2017-Jun-22 02:00N 38°42' W 074°33'1 1.7
2017-Jun-22 01:30N 38°41' W 074°33'6 0.4
2017-Jun-21 07:30N 38°35' W 074°34'  

Dump ship's entire track history